createdAt,value
2024-05-09T00:01:10.279Z,0
2024-05-09T00:02:55.297Z,0
2024-05-09T00:04:11.324Z,0
2024-05-09T00:07:12.346Z,0
2024-05-09T00:10:13.373Z,0
2024-05-09T00:13:14.394Z,0
2024-05-09T00:16:15.421Z,0
2024-05-09T00:19:16.448Z,0
2024-05-09T00:22:17.473Z,0
2024-05-09T00:25:18.493Z,0
2024-05-09T00:28:19.518Z,0
2024-05-09T00:31:20.542Z,0
2024-05-09T00:33:05.551Z,0
2024-05-09T00:34:21.583Z,0
2024-05-09T00:37:22.611Z,0
2024-05-09T00:40:23.632Z,0
2024-05-09T00:43:24.650Z,0
2024-05-09T00:46:25.681Z,0
2024-05-09T00:49:26.700Z,0
2024-05-09T00:52:27.725Z,0
2024-05-09T00:55:28.751Z,0
2024-05-09T00:58:29.773Z,0
2024-05-09T01:01:30.795Z,0
2024-05-09T01:03:15.809Z,0
2024-05-09T01:04:31.841Z,0
2024-05-09T01:07:32.863Z,0
2024-05-09T01:10:33.881Z,0
2024-05-09T01:13:34.906Z,0
2024-05-09T01:16:35.932Z,0
2024-05-09T01:19:36.958Z,0
2024-05-09T01:22:37.984Z,0
2024-05-09T01:25:39.006Z,0
2024-05-09T01:28:40.023Z,0
2024-05-09T01:31:41.046Z,0
2024-05-09T01:33:26.063Z,0
2024-05-09T01:34:42.089Z,0
2024-05-09T01:37:43.112Z,0
2024-05-09T01:40:44.141Z,0
2024-05-09T01:43:45.166Z,0
2024-05-09T01:46:46.188Z,0
2024-05-09T01:49:47.208Z,0
2024-05-09T01:52:48.230Z,0
2024-05-09T01:55:49.260Z,0
2024-05-09T01:58:50.281Z,0
2024-05-09T02:01:51.306Z,0
2024-05-09T02:03:36.314Z,0
2024-05-09T02:04:52.351Z,0
2024-05-09T02:07:53.370Z,0
2024-05-09T02:10:54.388Z,0
2024-05-09T02:13:55.412Z,0
2024-05-09T02:16:56.443Z,0
2024-05-09T02:19:57.463Z,0
2024-05-09T02:22:58.483Z,0
2024-05-09T02:25:59.511Z,0
2024-05-09T02:29:00.533Z,0
2024-05-09T02:31:58.930Z,0
2024-05-09T02:33:46.569Z,0
2024-05-09T02:35:02.597Z,0
2024-05-09T02:38:03.619Z,0
2024-05-09T02:41:04.644Z,0
2024-05-09T02:44:05.667Z,0
2024-05-09T02:47:06.689Z,0
2024-05-09T02:50:07.712Z,0
2024-05-09T02:53:08.736Z,0
2024-05-09T02:56:09.760Z,0
2024-05-09T02:59:10.784Z,1
2024-05-09T03:02:11.805Z,0
2024-05-09T03:03:56.815Z,1
2024-05-09T03:08:13.875Z,1
2024-05-09T03:11:14.894Z,1
2024-05-09T03:14:15.924Z,2
2024-05-09T03:17:16.943Z,3
2024-05-09T03:20:17.963Z,5
2024-05-09T03:23:18.989Z,10
2024-05-09T03:26:20.014Z,18
2024-05-09T03:29:21.034Z,16
2024-05-09T03:32:22.057Z,30
2024-05-09T03:34:07.072Z,42
2024-05-09T03:35:23.085Z,56
2024-05-09T03:38:24.106Z,66
2024-05-09T03:41:25.134Z,62
2024-05-09T03:44:26.153Z,93
2024-05-09T03:47:27.178Z,122
2024-05-09T03:50:28.199Z,127
2024-05-09T03:53:29.220Z,147
2024-05-09T03:56:30.253Z,184
2024-05-09T03:59:31.268Z,256
2024-05-09T04:02:32.297Z,307
2024-05-09T04:04:17.325Z,381
2024-05-09T04:05:33.324Z,488
2024-05-09T04:08:34.347Z,536
2024-05-09T04:11:35.364Z,574
2024-05-09T04:14:36.388Z,616
2024-05-09T04:17:37.418Z,677
2024-05-09T04:20:38.443Z,712
2024-05-09T04:23:39.458Z,747
2024-05-09T04:26:40.489Z,772
2024-05-09T04:29:41.511Z,840
2024-05-09T04:32:42.535Z,928
2024-05-09T04:34:27.576Z,969
2024-05-09T04:38:44.577Z,1023
2024-05-09T04:41:45.608Z,802
2024-05-09T04:44:46.631Z,1069
2024-05-09T04:47:47.648Z,1109
2024-05-09T04:50:48.669Z,1141
2024-05-09T04:53:49.692Z,1184
2024-05-09T04:56:50.723Z,1210
2024-05-09T04:59:51.739Z,1229
2024-05-09T05:04:37.831Z,1282
2024-05-09T05:05:53.806Z,1340
2024-05-09T05:08:54.828Z,1358
2024-05-09T05:11:55.855Z,1309
2024-05-09T05:14:56.874Z,1264
2024-05-09T05:17:57.903Z,1764
2024-05-09T05:20:58.927Z,1448
2024-05-09T05:23:59.952Z,1411
2024-05-09T05:27:00.976Z,1551
2024-05-09T05:30:01.993Z,1413
2024-05-09T05:33:03.016Z,1227
2024-05-09T05:34:48.080Z,1742
2024-05-09T05:36:04.061Z,1733
2024-05-09T05:39:05.081Z,1670
2024-05-09T05:42:06.111Z,1606
2024-05-09T05:45:07.135Z,1565
2024-05-09T05:48:08.150Z,1128
2024-05-09T05:51:09.177Z,1678
2024-05-09T05:54:10.199Z,2368
2024-05-09T05:57:11.224Z,2025
2024-05-09T06:00:12.250Z,1889
2024-05-09T06:03:13.269Z,2038
2024-05-09T06:04:58.331Z,2213
2024-05-09T06:06:14.315Z,2234
2024-05-09T06:09:15.339Z,1925
2024-05-09T06:12:16.359Z,2542
2024-05-09T06:15:17.381Z,2165
2024-05-09T06:18:18.405Z,2073
2024-05-09T06:21:19.428Z,2492
2024-05-09T06:24:20.449Z,2069
2024-05-09T06:27:21.471Z,1150
2024-05-09T06:30:22.498Z,2956
2024-05-09T06:35:08.584Z,1763
2024-05-09T06:36:24.561Z,1565
2024-05-09T06:39:25.589Z,2618
2024-05-09T06:42:26.604Z,1587
2024-05-09T06:45:27.634Z,2022
2024-05-09T06:48:28.657Z,2073
2024-05-09T06:54:30.704Z,1970
2024-05-09T06:57:31.718Z,1851
2024-05-09T07:03:33.766Z,2070
2024-05-09T07:05:18.837Z,2013
2024-05-09T07:06:34.969Z,2037
2024-05-09T07:09:35.991Z,2068
2024-05-09T07:12:37.017Z,2002
2024-05-09T07:15:38.057Z,2019
2024-05-09T07:18:39.056Z,2268
2024-05-09T07:21:40.083Z,1832
2024-05-09T07:24:41.101Z,1960
2024-05-09T07:27:42.124Z,2066
2024-05-09T07:30:43.154Z,2098
2024-05-09T07:33:44.174Z,2052
2024-05-09T07:35:29.078Z,2069
2024-05-09T07:36:45.198Z,2113
2024-05-09T07:39:46.226Z,1992
2024-05-09T07:42:47.243Z,2166
2024-05-09T07:45:48.272Z,1909
2024-05-09T07:48:49.286Z,2090
2024-05-09T07:51:50.315Z,2095
2024-05-09T07:54:51.340Z,2121
2024-05-09T08:00:53.380Z,2114
2024-05-09T08:03:54.409Z,2186
2024-05-09T08:05:39.327Z,2058
2024-05-09T08:06:55.428Z,2074
2024-05-09T08:09:56.455Z,2085
2024-05-09T08:12:57.476Z,2040
2024-05-09T08:15:58.500Z,2068
2024-05-09T08:18:59.523Z,2069
2024-05-09T08:22:00.540Z,2046
2024-05-09T08:25:01.570Z,2034
2024-05-09T08:28:02.587Z,2045
2024-05-09T08:31:03.609Z,2093
2024-05-09T08:34:04.638Z,2039
2024-05-09T08:35:49.577Z,2027
2024-05-09T08:37:05.715Z,2037
2024-05-09T08:40:06.732Z,2047
2024-05-09T08:43:07.761Z,2007
2024-05-09T08:46:08.787Z,2062
2024-05-09T08:49:09.808Z,2072
2024-05-09T08:52:10.830Z,2028
2024-05-09T08:55:11.850Z,1903
2024-05-09T08:58:12.873Z,2049
2024-05-09T09:01:13.901Z,2226
2024-05-09T09:04:14.918Z,2381
2024-05-09T09:05:59.832Z,2403
2024-05-09T09:07:15.946Z,2761
2024-05-09T09:10:16.971Z,2989
2024-05-09T09:13:17.992Z,3245
2024-05-09T09:19:20.031Z,3568
2024-05-09T09:22:21.053Z,5188
2024-05-09T09:25:22.075Z,2512
2024-05-09T09:28:23.105Z,1961
2024-05-09T09:31:24.122Z,3800
2024-05-09T09:34:25.145Z,4517
2024-05-09T09:36:10.073Z,1205
2024-05-09T09:37:26.166Z,2084
2024-05-09T09:40:27.193Z,2720
2024-05-09T09:43:28.214Z,3790
2024-05-09T09:48:57.494Z,1943
2024-05-09T09:51:58.514Z,4793
2024-05-09T09:54:59.540Z,1094
2024-05-09T09:58:00.563Z,2546
2024-05-09T10:01:01.588Z,2454
2024-05-09T10:04:02.608Z,2434
2024-05-09T10:06:20.312Z,3042
2024-05-09T10:07:36.295Z,3086
2024-05-09T10:10:37.313Z,3157
2024-05-09T10:13:38.332Z,3090
2024-05-09T10:16:39.362Z,5070
2024-05-09T10:19:40.376Z,3514
2024-05-09T10:22:41.407Z,3199
2024-05-09T10:28:10.683Z,3083
2024-05-09T10:31:11.702Z,1430
2024-05-09T10:34:12.728Z,5468
2024-05-09T10:36:30.561Z,3646
2024-05-09T10:37:46.539Z,3443
2024-05-09T10:40:47.561Z,2981
2024-05-09T10:43:48.581Z,2892
2024-05-09T10:46:49.602Z,2700
2024-05-09T10:49:50.625Z,1359
2024-05-09T10:52:51.643Z,5929
2024-05-09T10:55:52.666Z,2832
2024-05-09T10:58:53.689Z,1800
2024-05-09T11:01:54.711Z,5089
2024-05-09T11:06:40.801Z,3349
2024-05-09T11:07:56.773Z,2244
2024-05-09T11:10:57.797Z,2301
2024-05-09T11:13:58.820Z,5384
2024-05-09T11:16:59.841Z,1235
2024-05-09T11:20:00.866Z,2976
2024-05-09T11:23:01.896Z,5300
2024-05-09T11:26:02.918Z,1251
2024-05-09T11:29:03.936Z,3145
2024-05-09T11:32:04.961Z,3431
2024-05-09T11:35:05.976Z,3619
2024-05-09T11:36:51.042Z,3315
2024-05-09T11:38:07.019Z,5947
2024-05-09T11:43:36.302Z,3808
2024-05-09T11:46:37.323Z,1313
2024-05-09T11:49:38.350Z,2977
2024-05-09T11:52:39.373Z,2906
2024-05-09T11:55:40.392Z,2621
2024-05-09T11:58:41.418Z,2638
2024-05-09T12:01:42.440Z,3285
2024-05-09T12:04:43.459Z,2905
2024-05-09T12:07:01.287Z,2942
2024-05-09T12:08:17.263Z,6087
2024-05-09T12:11:18.292Z,3343
2024-05-09T12:14:19.313Z,1363
2024-05-09T12:17:20.332Z,3815
2024-05-09T12:22:49.620Z,3735
2024-05-09T12:25:50.641Z,3083
2024-05-09T12:28:51.659Z,2583
2024-05-09T12:31:52.679Z,4346
2024-05-09T12:34:53.705Z,2734
2024-05-09T12:37:11.539Z,1610
2024-05-09T12:38:27.508Z,3401
2024-05-09T12:41:28.535Z,1828
2024-05-09T12:44:29.559Z,1018
2024-05-09T12:47:30.584Z,4385
2024-05-09T12:50:31.603Z,1071
2024-05-09T12:53:32.624Z,2849
2024-05-09T12:56:33.652Z,2177
2024-05-09T13:02:02.932Z,4058
2024-05-09T13:05:03.955Z,872
2024-05-09T13:07:21.782Z,1253
2024-05-09T13:08:37.756Z,3927
2024-05-09T13:11:38.779Z,2589
2024-05-09T13:14:39.797Z,800
2024-05-09T13:17:40.826Z,1740
2024-05-09T13:20:41.842Z,2624
2024-05-09T13:23:42.864Z,2591
2024-05-09T13:26:43.888Z,2600
2024-05-09T13:29:44.917Z,2650
2024-05-09T13:32:45.939Z,3357
2024-05-09T13:35:46.958Z,4039
2024-05-09T13:38:47.985Z,2611
2024-05-09T13:41:49.003Z,1004
2024-05-09T13:44:50.024Z,2658
2024-05-09T13:47:51.048Z,4168
2024-05-09T13:50:52.069Z,2765
2024-05-09T13:53:53.090Z,848
2024-05-09T13:56:54.117Z,2057
2024-05-09T13:59:55.142Z,2487
2024-05-09T14:02:14.620Z,2680
2024-05-09T14:03:30.597Z,3076
2024-05-09T14:06:31.627Z,3176
2024-05-09T14:09:32.644Z,1235
2024-05-09T14:12:33.670Z,2525
2024-05-09T14:21:03.976Z,2596
2024-05-09T14:27:06.015Z,2547
2024-05-09T14:30:07.041Z,2673
2024-05-09T14:32:24.872Z,2575
2024-05-09T14:33:40.841Z,2491
2024-05-09T14:36:41.872Z,2493
2024-05-09T14:39:42.888Z,2396
2024-05-09T14:42:43.914Z,2450
2024-05-09T14:45:44.938Z,2566
2024-05-09T14:48:45.960Z,2669
2024-05-09T14:51:46.981Z,2602
2024-05-09T14:57:16.265Z,2527
2024-05-09T15:00:17.287Z,2399
2024-05-09T15:02:35.118Z,2600
2024-05-09T15:03:51.095Z,2694
2024-05-09T15:06:52.117Z,2809
2024-05-09T15:09:53.191Z,2859
2024-05-09T15:12:54.166Z,2800
2024-05-09T15:15:55.180Z,2757
2024-05-09T15:18:56.204Z,2926
2024-05-09T15:21:57.226Z,3394
2024-05-09T15:24:58.252Z,3592
2024-05-09T15:27:59.280Z,3186
2024-05-09T15:31:00.297Z,3126
2024-05-09T15:34:01.322Z,2338
2024-05-09T15:37:02.346Z,3056
2024-05-09T15:40:03.368Z,2744
2024-05-09T15:43:04.393Z,2197
2024-05-09T15:46:05.418Z,2972
2024-05-09T15:49:06.440Z,2928
2024-05-09T15:52:07.459Z,3002
2024-05-09T15:55:08.477Z,3189
2024-05-09T15:57:27.969Z,3043
2024-05-09T15:58:43.943Z,3259
2024-05-09T16:01:44.970Z,3966
2024-05-09T16:04:45.988Z,3177
2024-05-09T16:07:47.011Z,6344
2024-05-09T16:13:16.287Z,4903
2024-05-09T16:16:17.316Z,1446
2024-05-09T16:19:18.340Z,5725
2024-05-09T16:22:19.362Z,4029
2024-05-09T16:25:20.379Z,4453
2024-05-09T16:27:38.210Z,7254
2024-05-09T16:28:54.187Z,3012
2024-05-09T16:31:55.206Z,11162
2024-05-09T16:34:56.237Z,8572
2024-05-09T16:37:57.256Z,5321
2024-05-09T16:40:58.279Z,3492
2024-05-09T16:43:59.302Z,1591
2024-05-09T16:47:00.323Z,6443
2024-05-09T16:52:29.602Z,3062
2024-05-09T16:55:30.622Z,19784
2024-05-09T16:57:48.457Z,15669
2024-05-09T16:59:04.429Z,17132
2024-05-09T17:02:05.457Z,9242
2024-05-09T17:05:06.477Z,7934
2024-05-09T17:08:07.496Z,3728
2024-05-09T17:11:08.528Z,3448
2024-05-09T17:14:09.548Z,2883
2024-05-09T17:17:10.565Z,3343
2024-05-09T17:20:11.595Z,2038
2024-05-09T17:23:12.608Z,3159
2024-05-09T17:26:13.634Z,4687
2024-05-09T17:29:14.660Z,2682
2024-05-09T17:32:15.681Z,2162
2024-05-09T17:38:17.725Z,3600
2024-05-09T17:41:18.748Z,1523
2024-05-09T17:44:19.769Z,3633
2024-05-09T17:47:20.792Z,3019
2024-05-09T17:50:21.823Z,2854
2024-05-09T17:52:41.300Z,2266
2024-05-09T17:53:57.280Z,1928
2024-05-09T17:56:58.307Z,1754
2024-05-09T17:59:59.321Z,1786
2024-05-09T18:03:00.352Z,1633
2024-05-09T18:08:29.630Z,1437
2024-05-09T18:14:31.673Z,983
2024-05-09T18:17:32.697Z,948
2024-05-09T18:20:33.714Z,913
2024-05-09T18:22:51.549Z,798
2024-05-09T18:24:07.525Z,703
2024-05-09T18:27:08.543Z,589
2024-05-09T18:30:09.571Z,623
2024-05-09T18:33:10.594Z,603
2024-05-09T18:36:11.619Z,491
2024-05-09T18:39:12.636Z,405
2024-05-09T18:42:13.663Z,333
2024-05-09T18:47:42.947Z,259
2024-05-09T18:50:43.967Z,183
2024-05-09T18:53:01.797Z,122
2024-05-09T18:54:17.955Z,90
2024-05-09T18:57:18.978Z,70
2024-05-09T19:00:19.995Z,67
2024-05-09T19:03:21.021Z,51
2024-05-09T19:06:22.039Z,34
2024-05-09T19:09:23.062Z,27
2024-05-09T19:12:24.086Z,14
2024-05-09T19:15:25.111Z,12
2024-05-09T19:18:26.136Z,8
2024-05-09T19:21:27.158Z,3
2024-05-09T19:24:28.180Z,2
2024-05-09T19:27:29.209Z,1
2024-05-09T19:30:30.223Z,1
2024-05-09T19:33:31.253Z,0
2024-05-09T19:36:32.276Z,0
2024-05-09T19:39:33.294Z,0
2024-05-09T19:42:34.318Z,0
2024-05-09T19:45:35.347Z,0
2024-05-09T19:47:54.652Z,0
2024-05-09T19:49:10.680Z,0
2024-05-09T19:52:11.705Z,0
2024-05-09T19:55:12.731Z,0
2024-05-09T19:58:13.749Z,0
2024-05-09T20:03:43.031Z,0
2024-05-09T20:06:44.057Z,0
2024-05-09T20:09:45.082Z,0
2024-05-09T20:12:46.105Z,0
2024-05-09T20:15:47.125Z,0
2024-05-09T20:18:04.900Z,0
2024-05-09T20:19:20.930Z,0
2024-05-09T20:22:21.952Z,0
2024-05-09T20:25:22.976Z,0
2024-05-09T20:28:23.995Z,0
2024-05-09T20:31:25.026Z,0
2024-05-09T20:34:26.046Z,0
2024-05-09T20:37:27.070Z,0
2024-05-09T20:42:56.352Z,0
2024-05-09T20:45:57.380Z,0
2024-05-09T20:48:15.148Z,0
2024-05-09T20:49:31.343Z,0
2024-05-09T20:52:32.358Z,0
2024-05-09T20:55:33.381Z,0
2024-05-09T20:58:34.405Z,0
2024-05-09T21:01:35.428Z,0
2024-05-09T21:04:36.457Z,0
2024-05-09T21:07:37.481Z,0
2024-05-09T21:10:38.496Z,0
2024-05-09T21:13:39.522Z,0
2024-05-09T21:16:40.550Z,0
2024-05-09T21:18:25.398Z,0
2024-05-09T21:19:41.571Z,0
2024-05-09T21:22:42.596Z,0
2024-05-09T21:25:43.614Z,0
2024-05-09T21:28:44.640Z,0
2024-05-09T21:31:45.659Z,0
2024-05-09T21:34:46.681Z,0
2024-05-09T21:37:47.708Z,0
2024-05-09T21:40:48.732Z,0
2024-05-09T21:43:49.752Z,0
2024-05-09T21:46:50.774Z,0
2024-05-09T21:48:35.644Z,0
2024-05-09T21:49:51.804Z,0
2024-05-09T21:52:52.827Z,0
2024-05-09T21:55:53.845Z,0
2024-05-09T21:58:54.869Z,0
2024-05-09T22:01:55.894Z,0
2024-05-09T22:04:56.911Z,0
2024-05-09T22:07:57.931Z,0
2024-05-09T22:10:58.962Z,0
2024-05-09T22:13:59.986Z,0
2024-05-09T22:17:01.002Z,0
2024-05-09T22:18:42.749Z,0
2024-05-09T22:20:02.033Z,0
2024-05-09T22:23:03.048Z,0
2024-05-09T22:26:04.073Z,0
2024-05-09T22:29:05.100Z,0
2024-05-09T22:32:06.122Z,0
2024-05-09T22:35:07.143Z,0
2024-05-09T22:38:08.171Z,0
2024-05-09T22:41:09.187Z,0
2024-05-09T22:44:10.208Z,0
2024-05-09T22:47:11.232Z,0
2024-05-09T22:48:56.143Z,0
2024-05-09T22:50:12.262Z,0
2024-05-09T22:53:13.279Z,0
2024-05-09T22:56:11.141Z,0
2024-05-09T22:59:15.324Z,0
2024-05-09T23:02:16.356Z,0
2024-05-09T23:05:17.373Z,0
2024-05-09T23:08:18.393Z,0
2024-05-09T23:11:19.424Z,0
2024-05-09T23:14:20.446Z,0
2024-05-09T23:17:21.465Z,0
2024-05-09T23:19:06.394Z,0
2024-05-09T23:20:22.489Z,0
2024-05-09T23:23:23.518Z,0
2024-05-09T23:26:24.540Z,0
2024-05-09T23:29:25.562Z,0
2024-05-09T23:32:26.581Z,0
2024-05-09T23:35:27.609Z,0
2024-05-09T23:38:28.628Z,0
2024-05-09T23:41:29.651Z,0
2024-05-09T23:44:30.674Z,0
2024-05-09T23:47:31.699Z,0
2024-05-09T23:49:16.643Z,0
2024-05-09T23:50:32.726Z,0
2024-05-09T23:53:33.754Z,0
2024-05-09T23:56:34.773Z,0
2024-05-09T23:59:35.801Z,0
